Time;durP1;ratioP1;P1;durP2;ratioP2;P2;SDS_P1;SDS_P2;PMS_P1;PMS_P2;Temp;Humidity;BMP_temperature;BMP_pressure;BME280_temperature;BME280_humidity;BME280_pressure;Samples;Min_cycle;Max_cycle;Signal;HPM_P1;HPM_P2
2021/12/27 00:01:18;;;;;;;18.97;9.80;;;3.20;99.90;;;;;;5068401;28;20037;-80
2021/12/27 00:03:44;;;;;;;18.03;8.43;;;3.40;99.90;;;;;;5049659;28;20283;-80
2021/12/27 00:06:10;;;;;;;19.87;9.47;;;3.40;99.90;;;;;;5052672;28;20021;-80
2021/12/27 00:08:44;;;;;;;22.63;9.93;;;3.30;99.90;;;;;;5052333;28;20302;-81
2021/12/27 00:11:17;;;;;;;20.23;9.43;;;3.40;99.90;;;;;;5050941;28;20027;-80
2021/12/27 00:13:42;;;;;;;15.75;8.40;;;3.40;99.90;;;;;;5055447;28;20017;-80
2021/12/27 00:16:09;;;;;;;22.67;9.27;;;3.40;99.90;;;;;;5052282;28;20048;-80
2021/12/27 00:18:38;;;;;;;18.47;10.13;;;3.40;99.90;;;;;;5049641;28;20056;-81
2021/12/27 00:21:13;;;;;;;18.50;8.73;;;3.40;99.90;;;;;;5050918;28;20029;-80
2021/12/27 00:23:42;;;;;;;15.17;8.73;;;3.30;99.90;;;;;;5047893;28;20315;-80
2021/12/27 00:26:13;;;;;;;18.27;9.90;;;3.50;99.90;;;;;;5051838;28;20048;-81
2021/12/27 00:28:39;;;;;;;17.73;9.23;;;3.40;99.90;;;;;;5050680;28;20058;-81
2021/12/27 00:31:27;;;;;;;18.83;8.87;;;3.40;99.90;;;;;;5065545;28;20284;-80
2021/12/27 00:34:02;;;;;;;20.80;9.37;;;3.40;99.90;;;;;;5067251;28;21100;-81
2021/12/27 00:36:27;;;;;;;18.73;9.00;;;3.40;99.90;;;;;;5067636;28;20030;-81
2021/12/27 00:39:16;;;;;;;18.93;9.17;;;3.40;99.90;;;;;;5045456;28;20037;-81
2021/12/27 00:41:45;;;;;;;20.57;9.53;;;3.40;99.90;;;;;;5050168;28;20025;-81
2021/12/27 00:44:13;;;;;;;19.50;9.00;;;3.50;99.90;;;;;;5054401;28;20024;-81
2021/12/27 00:46:42;;;;;;;16.77;8.63;;;3.50;99.90;;;;;;5050604;28;20036;-81
2021/12/27 00:49:09;;;;;;;19.13;9.57;;;3.50;99.90;;;;;;5051851;28;20064;-80
2021/12/27 00:51:40;;;;;;;18.30;9.30;;;3.50;99.90;;;;;;5052286;28;20276;-81
2021/12/27 00:54:08;;;;;;;20.17;9.40;;;3.50;99.90;;;;;;5051282;28;20036;-81
2021/12/27 00:56:39;;;;;;;19.43;9.73;;;3.50;99.90;;;;;;5067282;28;20060;-81
2021/12/27 00:59:07;;;;;;;20.00;8.83;;;3.50;99.90;;;;;;5053648;28;20036;-81
2021/12/27 01:01:33;;;;;;;17.53;8.20;;;3.50;99.90;;;;;;5067349;28;20010;-81
2021/12/27 01:04:03;;;;;;;15.93;8.40;;;3.50;99.90;;;;;;5051161;28;20052;-81
2021/12/27 01:06:29;;;;;;;15.50;8.20;;;3.50;99.90;;;;;;5052616;28;20025;-81
2021/12/27 01:08:55;;;;;;;15.67;8.00;;;3.40;99.90;;;;;;5066451;28;20380;-81
2021/12/27 01:11:26;;;;;;;17.50;9.57;;;3.50;99.90;;;;;;5051719;28;20048;-81
2021/12/27 01:14:14;;;;;;;20.17;9.50;;;3.60;99.90;;;;;;5052383;28;20053;-81
2021/12/27 01:16:49;;;;;;;17.40;8.23;;;3.50;99.90;;;;;;5048468;28;20025;-81
2021/12/27 01:19:19;;;;;;;18.10;9.43;;;3.50;99.90;;;;;;5052319;28;20021;-81
2021/12/27 01:21:50;;;;;;;18.17;8.80;;;3.60;99.90;;;;;;5050390;28;20097;-81
2021/12/27 01:24:21;;;;;;;17.87;9.50;;;3.50;99.90;;;;;;5052415;28;20028;-81
2021/12/27 01:26:49;;;;;;;21.33;8.83;;;3.60;99.90;;;;;;5052702;28;20042;-81
2021/12/27 01:29:17;;;;;;;14.87;7.50;;;3.60;99.90;;;;;;5051800;28;20032;-81
2021/12/27 01:31:43;;;;;;;18.17;9.10;;;3.50;99.90;;;;;;5069156;28;20013;-80
2021/12/27 01:34:11;;;;;;;16.23;8.47;;;3.60;99.90;;;;;;5067347;28;20021;-80
2021/12/27 01:36:37;;;;;;;14.80;8.43;;;3.60;99.90;;;;;;5051061;28;20045;-80
2021/12/27 01:39:10;;;;;;;16.60;8.27;;;3.60;99.90;;;;;;5068566;28;20076;-81
2021/12/27 01:41:35;;;;;;;14.43;7.53;;;3.80;99.90;;;;;;5051218;28;20064;-81
2021/12/27 01:44:04;;;;;;;17.70;8.90;;;3.70;99.90;;;;;;5052252;28;20044;-81
2021/12/27 01:46:31;;;;;;;17.17;8.33;;;3.60;99.90;;;;;;5053739;28;20017;-81
2021/12/27 01:49:01;;;;;;;16.13;8.57;;;3.70;99.90;;;;;;5052152;28;20025;-81
2021/12/27 01:51:39;;;;;;;17.20;7.47;;;3.60;99.90;;;;;;5053889;28;20283;-81
2021/12/27 01:54:07;;;;;;;13.13;7.60;;;3.60;99.90;;;;;;5103110;22;20026;-81
2021/12/27 01:56:38;;;;;;;17.63;8.50;;;3.70;99.90;;;;;;5051119;28;20014;-81
2021/12/27 01:59:06;;;;;;;17.50;8.60;;;3.60;99.90;;;;;;5034233;28;20006;-81
2021/12/27 02:01:32;;;;;;;16.33;8.40;;;3.50;99.90;;;;;;5050561;28;19994;-81
2021/12/27 02:04:13;;;;;;;14.47;7.73;;;3.60;99.90;;;;;;5035250;28;20082;-81
2021/12/27 02:06:38;;;;;;;17.07;8.03;;;3.60;99.90;;;;;;5035517;28;20018;-81
2021/12/27 02:09:07;;;;;;;15.60;7.77;;;3.70;99.90;;;;;;5034636;28;20093;-81
2021/12/27 02:11:35;;;;;;;17.23;9.40;;;3.70;99.90;;;;;;5050971;28;20006;-81
2021/12/27 02:14:08;;;;;;;15.63;7.83;;;3.70;99.90;;;;;;5051729;28;20041;-81
2021/12/27 02:16:36;;;;;;;15.90;8.05;;;3.60;99.90;;;;;;5030801;28;20261;-81
2021/12/27 02:19:04;;;;;;;14.67;7.80;;;3.70;99.90;;;;;;5034682;28;20077;-81
2021/12/27 02:21:39;;;;;;;17.47;8.23;;;3.70;99.90;;;;;;5051075;28;20029;-81
2021/12/27 02:24:11;;;;;;;11.57;7.37;;;3.70;99.90;;;;;;5039162;28;20018;-80
2021/12/27 02:26:42;;;;;;;15.53;8.53;;;3.80;99.90;;;;;;5033827;28;20201;-80
2021/12/27 02:29:10;;;;;;;13.87;7.67;;;3.70;99.90;;;;;;5050931;28;20022;-80
2021/12/27 02:31:40;;;;;;;17.37;7.37;;;3.70;99.90;;;;;;5035627;28;20009;-80
2021/12/27 02:34:11;;;;;;;15.43;8.17;;;3.80;99.90;;;;;;5051009;28;20006;-81
2021/12/27 02:36:41;;;;;;;13.37;6.67;;;3.80;99.90;;;;;;5051178;28;20002;-80
2021/12/27 02:39:07;;;;;;;12.43;7.33;;;3.70;99.90;;;;;;5051038;28;20025;-80
2021/12/27 02:41:32;;;;;;;15.90;8.87;;;3.80;99.90;;;;;;5034426;28;20078;-81
2021/12/27 02:43:58;;;;;;;14.70;8.37;;;3.70;99.90;;;;;;5049353;28;20037;-81
2021/12/27 02:46:26;;;;;;;17.07;9.13;;;3.70;99.90;;;;;;5034543;28;20034;-80
2021/12/27 02:48:59;;;;;;;15.87;7.73;;;3.60;99.90;;;;;;5034810;28;20014;-80
2021/12/27 02:51:25;;;;;;;13.80;7.60;;;3.70;99.90;;;;;;5050906;28;20022;-82
2021/12/27 02:53:53;;;;;;;17.43;7.40;;;3.70;99.90;;;;;;5032280;28;20009;-81
2021/12/27 02:56:23;;;;;;;17.47;7.77;;;3.80;99.90;;;;;;5031852;28;20026;-81
2021/12/27 02:58:49;;;;;;;17.03;8.00;;;3.70;99.90;;;;;;5049366;28;20030;-81
2021/12/27 03:01:18;;;;;;;16.13;8.07;;;3.80;99.90;;;;;;5031677;28;20026;-81
2021/12/27 03:03:55;;;;;;;15.77;8.13;;;3.70;99.90;;;;;;5049628;28;20018;-81
2021/12/27 03:06:21;;;;;;;16.73;8.57;;;3.70;99.90;;;;;;5031118;28;20021;-81
2021/12/27 03:08:49;;;;;;;15.03;8.20;;;3.90;99.90;;;;;;5033326;28;20105;-81
2021/12/27 03:11:18;;;;;;;15.43;8.00;;;3.70;99.90;;;;;;5031104;28;20049;-81
2021/12/27 03:13:47;;;;;;;15.17;7.97;;;3.70;99.90;;;;;;5032815;28;20085;-81
2021/12/27 03:16:16;;;;;;;17.03;8.00;;;3.80;99.90;;;;;;5032162;28;20030;-81
2021/12/27 03:18:50;;;;;;;15.40;7.77;;;3.70;99.90;;;;;;5048425;28;20034;-81
2021/12/27 03:21:29;;;;;;;17.40;8.60;;;3.80;99.90;;;;;;5046588;28;20037;-81
2021/12/27 03:24:12;;;;;;;15.13;7.97;;;3.70;99.90;;;;;;5049816;28;20010;-81
2021/12/27 03:26:37;;;;;;;;;;;3.70;99.90;;;;;;5029853;28;20065;-81
2021/12/27 03:29:11;;;;;;;15.77;8.03;;;3.80;99.90;;;;;;5048840;28;19917;-81
2021/12/27 03:31:58;;;;;;;13.77;8.07;;;3.80;99.90;;;;;;5035959;28;20097;-81
2021/12/27 03:34:41;;;;;;;17.50;8.93;;;3.70;99.90;;;;;;5034753;28;20037;-81
2021/12/27 03:37:10;;;;;;;18.83;9.50;;;3.70;99.90;;;;;;5036774;28;20144;-81
2021/12/27 03:39:41;;;;;;;17.67;9.17;;;3.70;99.90;;;;;;5034922;28;20029;-81
2021/12/27 03:42:15;;;;;;;18.30;9.67;;;3.80;99.90;;;;;;5052813;28;20085;-81
2021/12/27 03:44:44;;;;;;;16.10;8.83;;;3.80;99.90;;;;;;5052054;28;20018;-81
2021/12/27 03:47:12;;;;;;;18.23;9.03;;;3.80;99.90;;;;;;5053639;28;20036;-81
2021/12/27 03:49:51;;;;;;;15.70;7.77;;;3.70;99.90;;;;;;5050454;28;20042;-81
2021/12/27 03:52:32;;;;;;;16.77;8.13;;;3.70;99.90;;;;;;5051828;28;20049;-80
2021/12/27 03:55:00;;;;;;;17.03;8.03;;;3.70;99.90;;;;;;5052773;28;20030;-81
2021/12/27 03:57:31;;;;;;;15.23;8.47;;;3.80;99.90;;;;;;5036956;28;20157;-81
2021/12/27 04:02:49;;;;;;;16.10;8.17;;;3.80;99.90;;;;;;5038696;28;20048;-81
2021/12/27 04:05:29;;;;;;;17.73;8.43;;;3.80;99.90;;;;;;5035440;28;20010;-81
2021/12/27 04:08:00;;;;;;;17.00;7.97;;;3.90;99.90;;;;;;5036838;28;20022;-81
2021/12/27 04:10:29;;;;;;;17.47;7.87;;;3.90;99.90;;;;;;5052688;28;20030;-81
2021/12/27 04:12:56;;;;;;;15.10;7.73;;;3.90;99.90;;;;;;5036036;28;20014;-80
2021/12/27 04:15:39;;;;;;;15.93;8.33;;;3.80;99.90;;;;;;5035977;28;20086;-81
2021/12/27 04:18:05;;;;;;;;;;;3.90;99.90;;;;;;5053029;28;20018;-80
2021/12/27 04:20:33;;;;;;;18.17;8.23;;;3.80;99.90;;;;;;5034958;28;19897;-81
2021/12/27 04:23:19;;;;;;;17.47;8.80;;;3.90;99.90;;;;;;5041622;28;20026;-80
2021/12/27 04:25:45;;;;;;;16.97;8.27;;;3.80;99.90;;;;;;5035833;28;20022;-80
2021/12/27 04:28:11;;;;;;;17.17;9.03;;;3.90;99.90;;;;;;5035031;28;20026;-81
2021/12/27 04:30:37;;;;;;;17.10;7.80;;;3.80;99.90;;;;;;5035679;28;20052;-80
2021/12/27 04:33:04;;;;;;;18.37;9.07;;;3.90;99.90;;;;;;5051610;28;20021;-80
2021/12/27 04:35:37;;;;;;;17.67;8.20;;;3.90;99.90;;;;;;5051941;28;20021;-81
2021/12/27 04:38:06;;;;;;;16.83;8.50;;;3.90;99.90;;;;;;5040498;28;20018;-80
2021/12/27 04:40:38;;;;;;;17.23;8.07;;;3.90;99.90;;;;;;5035161;28;20026;-80
2021/12/27 04:43:12;;;;;;;15.80;8.17;;;3.90;99.90;;;;;;5050650;28;20014;-80
2021/12/27 04:45:38;;;;;;;16.80;8.03;;;3.80;99.90;;;;;;5051669;28;20045;-80
2021/12/27 04:48:04;;;;;;;18.13;8.97;;;3.90;99.90;;;;;;5032091;28;20112;-80
2021/12/27 04:50:33;;;;;;;18.13;8.40;;;3.90;99.90;;;;;;5035644;28;20028;-81
2021/12/27 04:52:59;;;;;;;15.43;8.17;;;3.90;99.90;;;;;;5033029;28;20042;-81
2021/12/27 04:55:29;;;;;;;19.03;8.63;;;4.00;99.90;;;;;;5034101;28;20110;-81
2021/12/27 04:57:58;;;;;;;15.47;7.53;;;4.00;99.90;;;;;;5019414;28;20045;-81
2021/12/27 05:00:23;;;;;;;19.00;8.67;;;3.90;99.90;;;;;;5049167;28;20020;-81
2021/12/27 05:02:52;;;;;;;14.43;7.00;;;3.90;99.90;;;;;;5027880;28;20042;-81
2021/12/27 05:05:30;;;;;;;15.90;7.87;;;3.90;99.90;;;;;;5033330;28;20032;-81
2021/12/27 05:07:57;;;;;;;15.10;7.47;;;3.90;99.90;;;;;;5052339;28;20036;-81
2021/12/27 05:10:24;;;;;;;15.90;7.43;;;3.80;99.90;;;;;;5015592;28;20034;-81
2021/12/27 05:12:55;;;;;;;17.53;7.47;;;3.90;99.90;;;;;;5035631;28;20052;-81
2021/12/27 05:15:33;;;;;;;16.57;7.80;;;3.90;99.90;;;;;;5051861;28;20082;-81
2021/12/27 05:18:04;;;;;;;11.20;7.43;;;4.00;99.90;;;;;;5051255;28;20030;-81
2021/12/27 05:20:32;;;;;;;15.97;7.73;;;4.00;99.90;;;;;;5032855;28;20033;-81
2021/12/27 05:23:01;;;;;;;15.60;7.43;;;4.00;99.90;;;;;;5031213;28;20034;-81
2021/12/27 05:25:34;;;;;;;14.20;7.47;;;4.00;99.90;;;;;;5034881;28;20033;-81
2021/12/27 05:28:03;;;;;;;14.53;7.40;;;4.00;99.90;;;;;;5034388;28;20053;-81
2021/12/27 05:30:32;;;;;;;12.97;6.83;;;4.00;99.90;;;;;;5051569;28;20028;-80
2021/12/27 05:33:01;;;;;;;15.80;7.17;;;4.00;99.90;;;;;;5051657;28;20048;-81
2021/12/27 05:35:29;;;;;;;16.67;7.80;;;4.00;99.90;;;;;;5031902;28;20052;-80
2021/12/27 05:37:55;;;;;;;15.37;7.50;;;4.00;99.90;;;;;;5051736;28;20017;-81
2021/12/27 05:40:26;;;;;;;15.17;7.03;;;4.10;99.90;;;;;;5050921;28;20029;-80
2021/12/27 05:42:55;;;;;;;14.53;8.10;;;4.00;99.90;;;;;;5032484;28;20041;-81
2021/12/27 05:45:24;;;;;;;14.20;7.27;;;4.10;99.90;;;;;;5049331;28;20021;-81
2021/12/27 05:47:53;;;;;;;13.87;6.57;;;4.10;99.90;;;;;;5051522;28;20101;-80
2021/12/27 05:50:19;;;;;;;17.37;8.17;;;4.00;99.90;;;;;;5048012;28;20018;-79
2021/12/27 05:52:46;;;;;;;15.83;7.90;;;4.10;99.90;;;;;;5030966;28;20026;-81
2021/12/27 05:55:13;;;;;;;12.73;6.83;;;4.10;99.90;;;;;;5051615;28;20017;-80
2021/12/27 05:57:47;;;;;;;17.63;7.93;;;4.10;99.90;;;;;;5050511;28;20022;-80
2021/12/27 06:00:14;;;;;;;12.03;6.83;;;4.10;99.90;;;;;;5050905;28;20075;-81
2021/12/27 06:02:41;;;;;;;13.57;6.90;;;4.10;99.90;;;;;;5050739;28;20014;-81
2021/12/27 06:05:07;;;;;;;14.30;7.47;;;4.10;99.90;;;;;;5034233;28;20018;-81
2021/12/27 06:07:33;;;;;;;14.67;7.63;;;4.10;99.90;;;;;;5050272;28;20045;-81
2021/12/27 06:09:58;;;;;;;14.17;7.00;;;4.10;99.90;;;;;;5049772;28;20018;-81
2021/12/27 06:12:27;;;;;;;11.63;6.70;;;4.20;99.90;;;;;;5051034;28;20036;-81
2021/12/27 06:14:53;;;;;;;13.03;7.13;;;4.20;99.90;;;;;;5031629;28;20029;-81
2021/12/27 06:17:20;;;;;;;13.93;6.93;;;4.10;99.90;;;;;;5050094;28;20025;-82
2021/12/27 06:19:46;;;;;;;12.73;6.80;;;4.10;99.90;;;;;;5049783;28;20006;-81
2021/12/27 06:22:18;;;;;;;13.70;6.77;;;4.30;99.90;;;;;;5033984;28;20106;-81
2021/12/27 06:24:47;;;;;;;14.00;7.03;;;4.20;99.90;;;;;;5049571;28;20025;-81
2021/12/27 06:27:15;;;;;;;14.57;6.97;;;4.20;99.90;;;;;;5015856;28;20053;-81
2021/12/27 06:29:43;;;;;;;12.37;7.03;;;4.30;99.90;;;;;;5036877;28;20086;-81
2021/12/27 06:32:13;;;;;;;13.77;7.20;;;4.10;99.90;;;;;;5049978;28;20018;-81
2021/12/27 06:34:44;;;;;;;13.13;7.13;;;4.30;99.90;;;;;;5050007;28;20030;-81
2021/12/27 06:37:17;;;;;;;12.53;6.43;;;4.20;99.90;;;;;;5033373;28;20021;-81
2021/12/27 06:39:43;;;;;;;14.00;6.10;;;4.20;99.90;;;;;;5036871;28;20022;-80
2021/12/27 06:42:12;;;;;;;16.93;7.27;;;4.20;99.90;;;;;;5050860;28;20038;-81
2021/12/27 06:44:40;;;;;;;17.90;7.27;;;4.20;99.90;;;;;;5049715;28;20045;-80
2021/12/27 06:47:06;;;;;;;12.90;6.37;;;4.20;99.90;;;;;;5050481;28;20018;-80
2021/12/27 06:49:41;;;;;;;13.13;6.37;;;4.20;99.90;;;;;;5030854;28;20080;-81
2021/12/27 06:52:14;;;;;;;13.07;6.93;;;4.20;99.90;;;;;;5033233;28;20038;-80
2021/12/27 06:54:40;;;;;;;16.97;7.97;;;4.20;99.90;;;;;;5050463;28;20026;-80
2021/12/27 06:57:09;;;;;;;16.90;7.00;;;4.30;99.90;;;;;;5034723;28;20037;-80
2021/12/27 06:59:40;;;;;;;13.90;6.70;;;4.20;99.90;;;;;;5050226;28;20021;-81
2021/12/27 07:02:06;;;;;;;13.83;6.93;;;4.20;99.90;;;;;;5050974;28;20026;-81
2021/12/27 07:04:32;;;;;;;15.90;6.33;;;4.20;99.90;;;;;;5050329;28;20035;-81
2021/12/27 07:06:58;;;;;;;14.87;7.57;;;4.20;99.90;;;;;;5053791;28;20064;-81
2021/12/27 07:09:24;;;;;;;16.10;7.73;;;4.10;99.90;;;;;;5053662;28;20030;-81
2021/12/27 07:11:50;;;;;;;10.37;6.27;;;4.30;99.90;;;;;;5054104;28;20059;-81
2021/12/27 07:14:18;;;;;;;14.70;6.90;;;4.10;99.90;;;;;;5038839;28;20021;-81
2021/12/27 07:16:47;;;;;;;13.40;6.97;;;4.30;99.90;;;;;;5053631;28;20026;-81
2021/12/27 07:19:13;;;;;;;13.40;6.30;;;4.10;99.90;;;;;;5053446;28;20013;-81
2021/12/27 07:21:38;;;;;;;14.20;6.67;;;4.30;99.90;;;;;;5037296;28;20030;-81
2021/12/27 07:24:07;;;;;;;12.23;6.90;;;4.20;99.90;;;;;;5037276;28;20029;-81
2021/12/27 07:26:35;;;;;;;11.63;6.53;;;4.10;99.90;;;;;;5035777;28;20033;-81
2021/12/27 07:29:01;;;;;;;14.60;5.87;;;4.10;99.90;;;;;;5033648;28;20041;-82
2021/12/27 07:31:27;;;;;;;13.93;6.70;;;4.10;99.90;;;;;;5036436;28;20034;-81
2021/12/27 07:33:55;;;;;;;13.63;6.73;;;4.10;99.90;;;;;;5052791;28;20033;-81
2021/12/27 07:36:21;;;;;;;16.97;7.30;;;4.00;99.90;;;;;;5053008;28;20029;-81
2021/12/27 07:38:53;;;;;;;12.90;6.97;;;4.00;99.90;;;;;;5033764;28;20029;-81
2021/12/27 07:41:18;;;;;;;13.97;6.07;;;3.70;99.90;;;;;;5053792;28;20022;-81
2021/12/27 07:43:44;;;;;;;12.73;6.63;;;3.90;99.90;;;;;;5033329;28;20028;-80
2021/12/27 07:46:16;;;;;;;13.00;6.33;;;3.80;99.90;;;;;;5052595;28;20030;-80
2021/12/27 07:48:42;;;;;;;16.20;6.80;;;3.60;99.90;;;;;;5053142;28;20042;-81
2021/12/27 07:51:08;;;;;;;11.73;6.13;;;3.70;99.90;;;;;;5036479;28;20045;-81
2021/12/27 07:53:36;;;;;;;17.23;7.70;;;3.60;99.90;;;;;;5036467;28;20010;-81
2021/12/27 07:56:08;;;;;;;16.03;7.23;;;3.50;99.90;;;;;;5052988;28;20022;-81
2021/12/27 07:58:37;;;;;;;16.33;6.93;;;3.50;99.90;;;;;;5052755;28;20010;-81
2021/12/27 08:01:07;;;;;;;14.10;7.13;;;3.60;99.90;;;;;;5034206;28;20018;-81
2021/12/27 08:03:32;;;;;;;16.13;7.10;;;3.50;99.90;;;;;;5035566;28;20041;-81
2021/12/27 08:05:58;;;;;;;13.93;8.07;;;3.60;99.90;;;;;;5052201;28;20044;-81
2021/12/27 08:08:26;;;;;;;18.03;7.77;;;3.60;99.90;;;;;;5036550;28;20026;-81
2021/12/27 08:10:52;;;;;;;16.93;7.90;;;3.60;99.90;;;;;;5051944;28;20060;-81
2021/12/27 08:13:18;;;;;;;18.57;7.77;;;3.70;99.90;;;;;;5033540;28;20026;-81
2021/12/27 08:15:43;;;;;;;19.73;8.43;;;3.80;99.90;;;;;;5052473;28;20037;-81
2021/12/27 08:18:09;;;;;;;14.30;7.67;;;3.80;99.90;;;;;;5050861;28;20018;-81
2021/12/27 08:20:37;;;;;;;17.07;7.47;;;4.00;99.90;;;;;;5051965;28;20010;-81
2021/12/27 08:23:09;;;;;;;15.57;7.43;;;4.00;99.90;;;;;;5036000;28;20077;-81
2021/12/27 08:25:40;;;;;;;17.63;7.47;;;4.10;99.90;;;;;;5051773;28;20034;-81
2021/12/27 08:28:06;;;;;;;13.67;7.23;;;4.10;99.90;;;;;;5035787;28;20073;-81
2021/12/27 08:30:35;;;;;;;16.17;8.10;;;4.10;99.90;;;;;;5033966;28;20018;-81
2021/12/27 08:33:01;;;;;;;13.13;7.10;;;4.10;99.90;;;;;;5052686;28;20033;-81
2021/12/27 08:35:30;;;;;;;15.33;7.73;;;4.10;99.90;;;;;;5035632;28;20026;-81
2021/12/27 08:38:05;;;;;;;12.47;6.87;;;4.10;99.90;;;;;;5036605;28;20024;-81
2021/12/27 08:40:31;;;;;;;16.73;7.80;;;4.20;99.90;;;;;;5346976;22;20016;-80
2021/12/27 08:43:22;;;;;;;13.43;6.60;;;4.10;99.90;;;;;;5039296;28;20026;-81
2021/12/27 08:45:50;;;;;;;14.10;6.77;;;4.20;99.90;;;;;;5040114;28;20034;-81
2021/12/27 08:48:16;;;;;;;15.63;7.17;;;4.30;99.90;;;;;;5039165;28;20026;-81
2021/12/27 08:50:42;;;;;;;15.87;7.17;;;4.50;99.90;;;;;;5036594;28;20037;-81
2021/12/27 08:53:08;;;;;;;17.33;8.30;;;4.40;99.90;;;;;;5038364;28;20026;-81
2021/12/27 08:55:37;;;;;;;18.77;8.07;;;4.40;99.90;;;;;;5037297;28;20025;-81
2021/12/27 08:58:05;;;;;;;17.97;7.77;;;4.50;99.90;;;;;;5039584;28;20022;-81
2021/12/27 09:00:33;;;;;;;18.30;8.60;;;4.50;99.90;;;;;;5054030;28;20038;-81
2021/12/27 09:02:59;;;;;;;18.77;7.33;;;4.60;99.90;;;;;;5036722;28;20014;-81
2021/12/27 09:05:25;;;;;;;14.47;7.13;;;4.50;99.90;;;;;;5038808;28;20060;-81
2021/12/27 09:07:56;;;;;;;16.93;8.17;;;4.60;99.90;;;;;;5124913;22;20118;-81
2021/12/27 09:10:22;;;;;;;14.97;8.27;;;4.70;99.90;;;;;;5052602;28;20132;-81
2021/12/27 09:12:48;;;;;;;17.70;7.87;;;4.70;99.90;;;;;;5033940;28;20002;-81
2021/12/27 09:15:14;;;;;;;19.03;8.20;;;4.80;99.90;;;;;;5052426;28;20022;-81
2021/12/27 09:17:41;;;;;;;13.93;7.33;;;4.80;99.90;;;;;;5034922;28;20136;-81
2021/12/27 09:20:07;;;;;;;16.13;8.33;;;4.80;99.90;;;;;;5035566;28;20025;-81
2021/12/27 09:22:33;;;;;;;16.70;7.30;;;4.80;99.90;;;;;;5033375;28;20010;-81
2021/12/27 09:25:01;;;;;;;20.60;8.23;;;4.90;99.90;;;;;;5036316;28;20038;-81
2021/12/27 09:27:27;;;;;;;16.77;8.20;;;4.90;99.90;;;;;;5033542;28;20022;-80
2021/12/27 09:29:52;;;;;;;19.30;7.87;;;5.00;99.90;;;;;;5050794;28;20056;-81
2021/12/27 09:32:21;;;;;;;17.03;8.83;;;5.10;99.90;;;;;;5051980;28;20018;-81
2021/12/27 09:34:47;;;;;;;13.67;7.70;;;5.00;99.90;;;;;;5036119;28;20028;-81
2021/12/27 09:37:12;;;;;;;24.87;8.20;;;5.00;99.90;;;;;;5050576;28;20049;-81
2021/12/27 09:39:38;;;;;;;18.67;8.70;;;4.90;99.90;;;;;;5032830;28;20038;-81
2021/12/27 09:42:12;;;;;;;16.50;8.13;;;5.10;99.90;;;;;;5039567;28;20033;-81
2021/12/27 09:44:40;;;;;;;15.23;7.13;;;5.10;99.90;;;;;;5040017;28;20065;-81
2021/12/27 09:47:11;;;;;;;16.03;7.77;;;5.20;99.90;;;;;;5034196;28;20010;-81
2021/12/27 09:49:40;;;;;;;13.97;6.97;;;5.30;99.90;;;;;;5035175;28;20041;-81
2021/12/27 09:52:09;;;;;;;13.10;7.10;;;5.40;99.90;;;;;;5042917;28;20089;-81
2021/12/27 09:54:35;;;;;;;19.23;7.30;;;5.30;99.90;;;;;;5038708;28;20053;-81
2021/12/27 09:57:01;;;;;;;12.47;7.37;;;5.30;99.90;;;;;;5052501;28;20017;-81
2021/12/27 10:02:02;;;;;;;12.13;7.27;;;5.30;99.90;;;;;;5035977;28;20085;-81
2021/12/27 10:04:27;;;;;;;11.13;6.30;;;5.30;99.90;;;;;;5035729;28;20013;-80
2021/12/27 10:06:53;;;;;;;17.57;7.40;;;5.40;99.90;;;;;;5031978;28;20288;-80
2021/12/27 10:09:33;;;;;;;14.47;6.63;;;5.40;99.90;;;;;;5035766;28;20021;-81
2021/12/27 10:12:13;;;;;;;;;;;;;;;;;;;;;
2021/12/27 10:14:44;;;;;;;14.10;7.10;;;5.50;99.90;;;;;;5031397;28;19994;-82
2021/12/27 10:17:11;;;;;;;14.10;6.50;;;5.50;99.90;;;;;;5040714;28;20017;-81
2021/12/27 10:19:44;;;;;;;12.80;7.13;;;5.60;99.90;;;;;;5038581;28;20065;-81
2021/12/27 10:22:11;;;;;;;11.57;6.17;;;5.50;99.90;;;;;;5032535;28;20030;-80
2021/12/27 10:24:50;;;;;;;14.17;6.87;;;5.80;99.90;;;;;;5037858;28;20010;-80
2021/12/27 10:27:19;;;;;;;15.03;7.57;;;5.70;99.90;;;;;;5034203;28;20001;-81
2021/12/27 10:29:45;;;;;;;12.93;7.07;;;5.70;99.90;;;;;;5035362;28;20006;-81
2021/12/27 10:32:18;;;;;;;13.73;7.57;;;5.70;99.90;;;;;;5037803;28;19998;-80
2021/12/27 10:34:52;;;;;;;17.07;7.83;;;5.70;99.90;;;;;;5038193;28;20014;-81
2021/12/27 10:37:32;;;;;;;13.90;6.67;;;5.80;99.90;;;;;;5039193;28;20002;-81
2021/12/27 10:39:57;;;;;;;13.23;6.53;;;5.90;99.90;;;;;;5038096;28;20006;-80
2021/12/27 10:45:05;;;;;;;17.57;7.10;;;6.00;99.90;;;;;;5394458;23;20056;-82
2021/12/27 10:47:42;;;;;;;10.93;6.60;;;6.10;99.90;;;;;;5061850;28;20016;-82
2021/12/27 10:50:23;;;;;;;10.53;6.60;;;6.20;99.90;;;;;;5062020;28;20020;-82
2021/12/27 10:53:09;;;;;;;9.90;6.10;;;6.20;99.90;;;;;;5067313;28;19997;-82
2021/12/27 10:58:37;;;;;;;12.52;6.80;;;6.20;99.90;;;;;;5056916;28;20025;-82
2021/12/27 11:01:19;;;;;;;11.77;6.37;;;6.30;99.90;;;;;;5059666;28;20002;-82
2021/12/27 11:03:56;;;;;;;12.48;6.28;;;6.30;99.90;;;;;;5066375;28;20065;-82
2021/12/27 11:06:26;;;;;;;9.77;5.63;;;6.30;99.90;;;;;;5062754;28;20008;-82
2021/12/27 11:08:58;;;;;;;8.63;5.20;;;6.30;99.90;;;;;;5057061;28;20040;-82
2021/12/27 11:11:25;;;;;;;10.93;5.77;;;6.30;99.90;;;;;;5062980;28;20065;-82
2021/12/27 11:13:58;;;;;;;10.83;5.90;;;6.30;99.90;;;;;;5060671;28;20006;-82
2021/12/27 11:16:29;;;;;;;10.50;5.93;;;6.30;99.90;;;;;;5061320;28;19994;-82
2021/12/27 11:18:56;;;;;;;11.07;6.47;;;6.40;99.90;;;;;;5062445;28;20004;-82
2021/12/27 11:21:23;;;;;;;14.70;6.50;;;6.40;99.90;;;;;;5062495;28;20068;-82
2021/12/27 11:23:55;;;;;;;9.63;5.20;;;6.40;99.90;;;;;;5058331;28;20001;-82
2021/12/27 11:26:36;;;;;;;13.23;5.70;;;6.40;99.90;;;;;;5062339;28;20069;-82
2021/12/27 11:29:14;;;;;;;9.43;6.07;;;6.30;99.90;;;;;;5060676;28;20037;-82
2021/12/27 11:32:10;;;;;;;10.13;6.30;;;6.40;99.90;;;;;;5077131;28;20006;-81
2021/12/27 11:34:56;;;;;;;11.07;5.40;;;6.50;99.90;;;;;;5054597;28;20037;-80
2021/12/27 11:37:40;;;;;;;14.87;7.23;;;6.60;99.90;;;;;;5035442;28;20074;-80
2021/12/27 11:42:55;;;;;;;11.53;5.93;;;6.70;99.90;;;;;;5471060;22;20064;-80
2021/12/27 11:45:58;;;;;;;11.67;5.97;;;6.80;99.90;;;;;;5052825;28;20009;-80
2021/12/27 11:48:27;;;;;;;9.35;5.80;;;6.80;99.90;;;;;;5068319;28;20009;-81
2021/12/27 11:50:59;;;;;;;11.10;6.00;;;6.90;99.90;;;;;;5047054;28;20032;-80
2021/12/27 11:53:35;;;;;;;9.10;5.72;;;6.80;99.90;;;;;;5050557;28;19998;-80
2021/12/27 11:56:08;;;;;;;8.63;5.33;;;6.80;99.90;;;;;;5038995;28;20017;-85
2021/12/27 11:58:43;;;;;;;;;;;6.90;99.90;;;;;;5042766;28;20017;-81
2021/12/27 12:01:21;;;;;;;10.07;5.10;;;6.90;99.90;;;;;;5053824;28;19894;-81
2021/12/27 12:03:54;;;;;;;10.37;6.13;;;6.90;99.90;;;;;;5065069;28;20014;-81
2021/12/27 12:06:44;;;;;;;12.80;5.77;;;6.90;99.90;;;;;;5047250;28;20030;-81
2021/12/27 12:09:14;;;;;;;8.10;4.70;;;7.00;99.90;;;;;;5041958;28;20021;-81
2021/12/27 12:11:42;;;;;;;7.67;4.87;;;6.90;99.90;;;;;;5053331;28;20033;-80
2021/12/27 12:14:29;;;;;;;8.20;4.93;;;7.00;99.90;;;;;;5040527;28;20022;-80
2021/12/27 12:16:55;;;;;;;10.27;5.60;;;7.10;99.90;;;;;;5040461;28;20022;-81
2021/12/27 12:19:45;;;;;;;8.67;4.87;;;7.00;99.90;;;;;;5046264;28;20021;-81
2021/12/27 12:22:31;;;;;;;9.17;5.77;;;7.00;99.90;;;;;;5043369;28;20018;-80
2021/12/27 12:25:12;;;;;;;8.83;5.47;;;7.00;99.90;;;;;;5043663;28;20014;-80
2021/12/27 12:27:57;;;;;;;8.27;4.40;;;7.10;99.90;;;;;;5060623;28;20097;-80
2021/12/27 12:30:32;;;;;;;7.97;5.13;;;7.10;99.90;;;;;;5038720;28;20057;-80
2021/12/27 12:33:09;;;;;;;9.47;4.77;;;7.10;99.90;;;;;;5038742;28;20010;-80
2021/12/27 12:35:42;;;;;;;9.87;5.20;;;7.00;99.90;;;;;;5057089;28;20049;-81
2021/12/27 12:38:21;;;;;;;6.80;4.63;;;7.10;99.90;;;;;;5313752;22;20038;-80
2021/12/27 12:41:05;;;;;;;8.00;4.30;;;7.10;99.90;;;;;;5354672;22;20030;-80
2021/12/27 12:43:35;;;;;;;6.90;4.07;;;7.10;99.90;;;;;;5021908;28;20018;-81
2021/12/27 12:46:19;;;;;;;6.53;4.50;;;7.10;99.90;;;;;;5021039;28;20022;-80
2021/12/27 12:49:06;;;;;;;7.97;4.83;;;7.10;99.90;;;;;;5017061;28;20014;-81
2021/12/27 12:51:51;;;;;;;6.80;4.17;;;7.10;99.90;;;;;;5018105;28;20017;-80
2021/12/27 12:54:33;;;;;;;;;;;;;;;;;;;;;
2021/12/27 12:57:02;;;;;;;6.53;3.93;;;7.20;99.90;;;;;;5026244;28;20001;-80
2021/12/27 12:59:41;;;;;;;8.37;4.73;;;7.10;99.90;;;;;;5021453;28;20030;-81
2021/12/27 13:02:19;;;;;;;9.80;4.70;;;7.20;99.90;;;;;;5021625;28;20002;-80
2021/12/27 13:05:13;;;;;;;9.07;5.20;;;7.20;99.90;;;;;;5026532;28;19999;-80
2021/12/27 13:07:45;;;;;;;7.47;4.63;;;7.30;99.90;;;;;;5011160;28;20030;-80
2021/12/27 13:10:32;;;;;;;6.87;3.30;;;7.30;99.90;;;;;;5033854;28;20010;-81
2021/12/27 13:13:16;;;;;;;8.30;4.73;;;7.40;99.90;;;;;;5018526;28;20002;-80
2021/12/27 13:15:57;;;;;;;5.57;3.53;;;7.50;99.90;;;;;;5038123;28;20003;-81
2021/12/27 13:18:26;;;;;;;6.10;3.77;;;7.40;99.90;;;;;;5020632;28;20025;-80
2021/12/27 13:21:07;;;;;;;5.73;3.77;;;7.50;99.90;;;;;;5023161;28;20021;-80
2021/12/27 13:23:42;;;;;;;7.87;3.70;;;7.50;99.90;;;;;;5036707;28;19999;-81